This is the latest recevied weather packets stored in our database for station/object LU4EGV-13. If no packets are shown the sender has not sent any weather packets the latest 10 day(s).
| Time | Temp. | Humidity | Pressure | Rain* | Wind** | Luminosity | Snow |
|---|---|---|---|---|---|---|---|
| 1788596122 | 6.67° C | 78% | 1017.6 hPa | 0 mm | - | - | - |
| 1788595515 | 6.67° C | 78% | 1017.5 hPa | 0 mm | - | - | - |
| 1788594908 | 6.67° C | 77% | 1017.6 hPa | 0 mm | - | - | - |
| 1788594302 | 6.67° C | 78% | 1017.3 hPa | 0 mm | - | - | - |
| 1788593696 | 6.67° C | 78% | 1017.2 hPa | 0 mm | - | - | - |
| 1788593090 | 7.22° C | 77% | 1017.2 hPa | 0 mm | - | - | - |
| 1788592485 | 7.22° C | 77% | 1017.1 hPa | 0 mm | - | - | - |
| 1788591877 | 7.22° C | 77% | 1017.1 hPa | 0 mm | - | - | - |
| 1788591272 | 7.22° C | 76% | 1017.1 hPa | 0 mm | - | - | - |
| 1788590666 | 7.22° C | 76% | 1017.1 hPa | 0 mm | - | - | - |
| 1788590062 | 7.22° C | 76% | 1017 hPa | 0 mm | - | - | - |
| 1788589453 | 7.22° C | 76% | 1017 hPa | 0 mm | - | - | - |
| 1788588847 | 7.22° C | 75% | 1016.9 hPa | 0 mm | - | - | - |
| 1788588249 | 7.78° C | 75% | 1016.9 hPa | - | - | - | - |
| 1788558214 | 16.11° C | 32% | 1013.6 hPa | 0 mm | - | - | - |
| 1788553970 | 18.33° C | 28% | 1013.5 hPa | 0 mm | - | - | - |
| 1788552759 | 18.33° C | 26% | 1013.5 hPa | 0 mm | - | - | - |
| 1788551546 | 18.33° C | 26% | 1013.6 hPa | 0 mm | - | - | - |
| 1788550941 | 18.33° C | 25% | 1013.5 hPa | 0 mm | - | - | - |
| 1788546699 | 18.33° C | 27% | 1013.8 hPa | 0 mm | - | - | - |
| 1788544880 | 17.78° C | 28% | 1013.7 hPa | 0 mm | - | - | - |
| 1788544272 | 18.33° C | 24% | 1013.8 hPa | 0 mm | - | - | - |
| 1788543059 | 18.33° C | 29% | 1014 hPa | 0 mm | - | - | - |
| 1788538822 | 17.22° C | 32% | 1015.2 hPa | 0 mm | - | - | - |
| 1788538210 | 16.67° C | 31% | 1015.1 hPa | 0 mm | - | - | - |
* Rain latest hour (hover to see other rain measurements)
** Current wind speed in m/s (hover to see current wind gust speed)